Yeovilton, United Kingdom

7:10 PM BST on August 23, 2014 (GMT +0100)
IENGLAND159 | Change Station
CLOSE
Current Station
Personal Weather Station
Location: Chilthorne Domer, Somerset
Elevation: 165 ft
Nearby Weather Stations

Elev 165 ft 50.97 °N, 2.67 °W | Updated 9 seconds ago

Clear
Clear
58.9 °F
Feels Like 58.9 °F
N
12.7
Wind Variable Wind from NW
Gusts 12.7 mph

Today
High -- | Low -- °F
--% Chance of Precip.
Yesterday
High -- | Low -- °F
Precip. -- in
6:09 AM 8:15 PM
Waning Crescent, 3% visible
Pressure 30.04 in
Visibility 6.2 miles
Clouds
Dew Point 48 °F
Humidity 66%
Rainfall 0.05 in
Snow Depth Not available.
UV 0.0 out of 12
Pollen Not available.
Air Quality Not available.
Flu Activity Not available.
METAR EGDY 231750Z AUTO 30012KT 9999 NCD 16/07 Q1017

More Conditions Fewer Conditions

Pressure 30.04 in
Visibility 6.2 miles
Clouds
Dew Point 48 °F
Humidity 66%
Rainfall 0.05 in
Snow Depth Not available.
UV 0.0 out of 12
Pollen Not available.
Air Quality Not available.
Flu Activity Not available.
METAR EGDY 231750Z AUTO 30012KT 9999 NCD 16/07 Q1017

More Conditions Fewer Conditions

10-Day Weather Forecast

Almanac

Astronomy

Aug. 23, 2014 Rise Set
Actual Time 6:09 AM BST 8:15 PM BST
Civil Twilight 5:33 AM BST 8:51 PM BST
Nautical Twilight 4:49 AM BST 9:35 PM BST
Astronomical Twilight 3:58 AM BST 10:26 PM BST
Moon 4:07 AM BST 6:54 PM BST
Length of Visible Light 15h 17m
Length of Day
14h 06m
Tomorrow will be 3m 40s shorter.
Waning Crescent, 3% of the Moon is Illuminated
Today
Waning Crescent
Aug 25
New
Sep 2
First Quarter
Sep 8
Full
Sep 15
Last Quarter

Today's Extremes

Country Highs Country Lows

Community

WunderPhotos

Upload Photos

1,746,551 photos uploaded!

WunderBlogs® & News

By Dr. Jeff Masters
Director of Meteorology, Weather Underground
By Kari Strenfel
Meteorologist, Weather Underground
By Christopher C. Burt
Weather Historian, Weather Underground
August 23, 2014
August 23, 2014
August 23, 2014

Nearby

Snow Depth

Not available.

Earthquake Activity

City Distance Mag. Time & Date
No recent earthquake activity has been reported nearby.
Minimum magnitude displayed is 2.5.

Coastal Water Temperatures

Place Temperature
No Stations Reporting

Nearby Weather Stations